Time;durP1;ratioP1;P1;durP2;ratioP2;P2;SDS_P1;SDS_P2;PMS_P1;PMS_P2;Temp;Humidity;BMP_temperature;BMP_pressure;BME280_temperature;BME280_humidity;BME280_pressure;Samples;Min_cycle;Max_cycle;Signal;HPM_P1;HPM_P2
2023/07/28 00:00:47;;;;;;;19.52;17.17;;;;;;;26.24;54.94;101175.13;21085629;28;20089;-68
2023/07/28 00:10:49;;;;;;;18.73;16.73;;;;;;;26.60;54.91;101255.81;21086569;28;20032;-68
2023/07/28 00:20:53;;;;;;;18.50;16.50;;;;;;;26.61;54.75;101232.19;21085204;28;20040;-69
2023/07/28 00:30:54;;;;;;;17.90;16.00;;;;;;;26.47;54.61;101200.50;21085106;28;20460;-69
2023/07/28 00:40:58;;;;;;;18.13;15.38;;;;;;;26.54;54.76;101206.53;21084251;28;20097;-69
2023/07/28 00:51:00;;;;;;;18.73;16.17;;;;;;;26.54;54.49;101198.13;21082113;28;20040;-69
2023/07/28 01:01:02;;;;;;;18.90;16.85;;;;;;;26.56;54.77;101201.44;21081636;28;20093;-71
2023/07/28 01:11:03;;;;;;;20.45;17.35;;;;;;;26.51;54.02;101230.44;21080405;28;20055;-70
2023/07/28 01:21:14;;;;;;;19.45;17.20;;;;;;;26.51;54.85;101246.44;21080035;28;20035;-69
2023/07/28 01:31:15;;;;;;;19.88;17.27;;;;;;;26.44;55.19;101240.44;21079884;28;20048;-69
2023/07/28 01:41:17;;;;;;;19.55;17.25;;;;;;;26.46;55.23;101240.94;21079974;28;20468;-69
2023/07/28 01:51:18;;;;;;;19.65;16.50;;;;;;;26.33;55.21;101240.59;21077969;28;20537;-69
2023/07/28 02:01:19;;;;;;;19.10;16.83;;;;;;;26.57;55.16;101259.22;21077701;28;20530;-69
2023/07/28 02:11:24;;;;;;;20.17;17.73;;;;;;;26.56;55.12;101265.97;21076975;28;20051;-70
2023/07/28 02:21:25;;;;;;;19.92;17.13;;;;;;;26.49;54.85;101265.59;21074219;28;20036;-69
2023/07/28 02:31:29;;;;;;;18.73;16.73;;;;;;;26.49;54.84;101263.59;21076657;28;20089;-69
2023/07/28 02:41:30;;;;;;;18.83;16.42;;;;;;;26.47;54.78;101267.84;21075912;28;20040;-69
2023/07/28 02:51:34;;;;;;;18.25;16.05;;;;;;;26.39;54.97;101248.91;21075257;28;20048;-69
2023/07/28 03:01:38;;;;;;;18.58;16.58;;;;;;;26.49;54.85;101257.16;21075230;28;20240;-69
2023/07/28 03:11:39;;;;;;;18.63;16.63;;;;;;;26.47;54.78;101262.25;21081791;28;20040;-70
2023/07/28 03:21:40;;;;;;;19.58;17.23;;;;;;;26.41;54.31;101271.88;21090362;28;20201;-70
2023/07/28 03:31:42;;;;;;;19.08;16.27;;;;;;;26.41;54.81;101274.69;21089497;28;20036;-69
2023/07/28 03:41:43;;;;;;;19.92;16.42;;;;;;;26.44;54.86;101319.00;21088755;28;20036;-68
2023/07/28 03:51:45;;;;;;;19.10;16.98;;;;;;;26.46;54.91;101316.72;21087682;28;20499;-69
2023/07/28 04:01:47;;;;;;;17.95;16.02;;;;;;;26.46;54.56;101327.94;21087160;28;20040;-69
2023/07/28 04:11:49;;;;;;;19.38;17.23;;;;;;;26.40;54.43;101306.69;21086350;28;20117;-69
2023/07/28 04:21:51;;;;;;;17.70;15.82;;;;;;;26.42;54.24;101324.03;21084705;28;20036;-69
2023/07/28 04:31:58;;;;;;;20.17;16.45;;;;;;;26.34;54.18;101329.25;21084856;28;20553;-69
2023/07/28 04:42:02;;;;;;;16.57;14.77;;;;;;;26.36;54.69;101329.75;21084290;28;20028;-69
2023/07/28 04:52:07;;;;;;;20.42;16.27;;;;;;;26.69;58.47;101340.94;21082735;28;20040;-69
2023/07/28 05:02:09;;;;;;;18.25;16.25;;;;;;;26.94;58.39;101350.00;21081836;28;20048;-69
2023/07/28 05:12:10;;;;;;;17.77;15.88;;;;;;;27.09;57.67;101336.50;21082023;28;20113;-70
2023/07/28 05:22:14;;;;;;;15.85;13.82;;;;;;;27.29;56.81;101340.84;21081913;28;20020;-70
2023/07/28 05:32:16;;;;;;;17.35;15.15;;;;;;;27.50;56.51;101351.63;21078805;28;20109;-70
2023/07/28 05:42:17;;;;;;;16.98;14.95;;;;;;;27.59;56.05;101353.38;21079498;28;20036;-70
2023/07/28 05:52:18;;;;;;;17.23;15.43;;;;;;;27.71;55.95;101347.19;21078052;28;20611;-69
2023/07/28 06:02:20;;;;;;;15.77;14.07;;;;;;;27.78;55.85;101347.63;21077848;28;20044;-69
2023/07/28 06:12:24;;;;;;;15.45;13.95;;;;;;;27.80;55.85;101331.25;21077384;28;20056;-69
2023/07/28 06:22:29;;;;;;;16.30;14.43;;;;;;;27.86;55.67;101332.81;21076647;28;20062;-70
2023/07/28 06:32:31;;;;;;;14.65;13.15;;;;;;;28.04;55.28;101349.78;21076104;28;20403;-69
2023/07/28 06:42:34;;;;;;;14.95;12.68;;;;;;;28.02;55.07;101330.41;21077260;28;20036;-69
2023/07/28 06:52:36;;;;;;;15.07;13.48;;;;;;;28.16;54.86;101357.66;21091700;28;20109;-69
2023/07/28 07:02:37;;;;;;;15.15;13.57;;;;;;;28.20;54.83;101342.63;21091849;28;20028;-69
2023/07/28 07:12:39;;;;;;;14.48;13.00;;;;;;;28.27;54.51;101342.16;21090973;28;20512;-69
2023/07/28 07:22:41;;;;;;;13.93;12.50;;;;;;;28.30;54.48;101331.09;21091761;28;20051;-69
2023/07/28 07:32:42;;;;;;;14.25;12.73;;;;;;;28.35;54.12;101324.53;21089637;28;20097;-68
2023/07/28 07:42:47;;;;;;;13.27;11.50;;;;;;;28.36;54.08;101340.25;21089365;28;20037;-69
2023/07/28 07:52:49;;;;;;;13.23;11.82;;;;;;;28.44;53.90;101347.09;21087362;28;20081;-69
2023/07/28 08:02:53;;;;;;;14.80;12.60;;;;;;;28.45;53.88;101357.19;21087632;28;20040;-70
2023/07/28 08:12:55;;;;;;;13.43;11.95;;;;;;;28.49;53.83;101378.75;21086982;28;20031;-70
2023/07/28 08:22:57;;;;;;;13.18;11.55;;;;;;;28.54;53.66;101363.69;21086070;28;20047;-70
2023/07/28 08:32:58;;;;;;;12.50;11.20;;;;;;;28.56;53.80;101373.50;21084794;28;20332;-69
2023/07/28 08:43:00;;;;;;;11.50;10.32;;;;;;;28.58;53.53;101382.44;21083755;28;20028;-69
2023/07/28 08:53:01;;;;;;;12.88;11.20;;;;;;;28.62;53.41;101396.72;21083213;28;20476;-70
2023/07/28 09:03:04;;;;;;;12.57;11.35;;;;;;;28.61;53.34;101415.59;21082963;28;20120;-69
2023/07/28 09:13:10;;;;;;;12.13;10.80;;;;;;;28.54;53.17;101411.56;21081598;28;20399;-70
2023/07/28 09:23:15;;;;;;;12.70;11.40;;;;;;;28.65;53.12;101429.88;21081544;28;20050;-68
2023/07/28 09:33:30;;;;;;;12.80;11.50;;;;;;;28.66;53.33;101451.22;21080222;28;20044;-70
2023/07/28 09:43:31;;;;;;;11.80;10.60;;;;;;;28.71;53.40;101469.97;21079783;28;20028;-69
2023/07/28 09:53:40;;;;;;;12.27;11.00;;;;;;;28.66;53.62;101467.31;21078803;28;20051;-70
2023/07/28 10:03:42;;;;;;;12.43;11.15;;;;;;;28.61;53.20;101459.81;21078227;28;20039;-70
2023/07/28 10:13:46;;;;;;;12.00;10.48;;;;;;;28.61;51.82;101493.59;21078640;28;20028;-71
2023/07/28 10:23:55;;;;;;;12.70;11.38;;;;;;;27.88;52.02;101503.19;21076121;28;20036;-69
2023/07/28 10:33:57;;;;;;;12.50;11.20;;;;;;;27.63;51.99;101491.34;21076024;28;20074;-69
2023/07/28 10:43:58;;;;;;;12.10;10.80;;;;;;;27.50;51.66;101521.13;21076400;28;20053;-69
2023/07/28 10:54:02;;;;;;;11.68;10.48;;;;;;;27.22;51.62;101514.66;21075852;28;20441;-70
2023/07/28 11:04:16;;;;;;;10.57;9.48;;;;;;;27.20;52.13;101547.81;21075021;28;20479;-71
2023/07/28 11:14:18;;;;;;;10.75;9.65;;;;;;;27.11;51.58;101552.50;21075379;28;20051;-69
2023/07/28 11:24:20;;;;;;;11.13;9.95;;;;;;;26.97;50.58;101563.66;21075548;28;20020;-70
2023/07/28 11:34:22;;;;;;;11.20;10.00;;;;;;;26.81;50.33;101565.91;21084886;28;20455;-69
2023/07/28 11:44:24;;;;;;;10.27;8.50;;;;;;;26.67;49.90;101562.22;21089899;28;20599;-69
2023/07/28 11:54:27;;;;;;;10.20;8.93;;;;;;;26.57;49.42;101553.94;21088329;28;20097;-69
2023/07/28 12:04:30;;;;;;;10.18;9.10;;;;;;;26.48;49.61;101562.25;21087659;28;20097;-70
2023/07/28 12:14:35;;;;;;;9.60;8.60;;;;;;;26.41;49.46;101553.31;21086813;28;20038;-68
2023/07/28 12:24:36;;;;;;;10.05;8.88;;;;;;;26.34;49.71;101567.75;21086040;28;20043;-69
2023/07/28 12:34:38;;;;;;;9.80;8.63;;;;;;;26.23;49.53;101557.78;21084878;28;20048;-69
2023/07/28 12:44:42;;;;;;;9.05;8.05;;;;;;;26.21;49.47;101574.09;21083652;28;20377;-69
2023/07/28 12:54:43;;;;;;;9.82;8.55;;;;;;;26.05;48.91;101553.00;21083516;28;20168;-69
2023/07/28 13:04:44;;;;;;;8.88;7.97;;;;;;;26.09;49.47;101568.09;21082856;28;20097;-70
2023/07/28 13:14:46;;;;;;;8.90;8.00;;;;;;;26.06;49.37;101571.47;21085206;28;20035;-69
2023/07/28 13:24:47;;;;;;;9.00;8.10;;;;;;;26.04;49.35;101557.78;21082093;28;20456;-68
2023/07/28 13:34:48;;;;;;;9.20;8.23;;;;;;;26.00;49.46;101567.09;21080712;28;20524;-69
2023/07/28 13:44:50;;;;;;;8.40;7.60;;;;;;;25.96;49.71;101571.63;21079816;28;20032;-69
2023/07/28 13:54:52;;;;;;;8.85;7.88;;;;;;;26.08;53.12;101581.28;21078791;28;20052;-69
2023/07/28 14:04:54;;;;;;;8.48;7.68;;;;;;;26.45;54.51;101578.84;21078797;28;20121;-70
2023/07/28 14:14:55;;;;;;;8.10;7.40;;;;;;;26.75;53.79;101569.91;21078067;28;20040;-69
2023/07/28 14:24:56;;;;;;;9.38;7.97;;;;;;;26.88;53.15;101553.44;21077459;28;20040;-70
2023/07/28 14:34:58;;;;;;;6.88;6.28;;;;;;;27.15;52.85;101570.41;21076777;28;20043;-69
2023/07/28 14:44:59;;;;;;;7.93;7.13;;;;;;;27.27;52.38;101579.19;21076700;28;20016;-69
2023/07/28 14:55:00;;;;;;;7.78;6.97;;;;;;;27.38;52.51;101562.13;21075664;28;20070;-69
2023/07/28 15:05:02;;;;;;;8.38;7.15;;;;;;;27.51;52.31;101561.31;21079452;28;20476;-69
2023/07/28 15:15:04;;;;;;;7.80;6.45;;;;;;;27.62;52.20;101560.78;21092598;28;20455;-69
2023/07/28 15:25:06;;;;;;;8.45;7.55;;;;;;;27.70;51.96;101576.09;21091903;28;20036;-70
2023/07/28 15:35:07;;;;;;;8.00;7.20;;;;;;;27.78;52.22;101575.41;21090452;28;20044;-69
2023/07/28 15:45:09;;;;;;;8.05;7.15;;;;;;;27.88;51.95;101551.03;21091132;28;20024;-69
2023/07/28 15:55:11;;;;;;;7.88;7.07;;;;;;;27.92;51.67;101526.75;21085600;28;20047;-69
2023/07/28 16:05:12;;;;;;;8.32;7.53;;;;;;;28.03;51.90;101522.53;21087734;28;20399;-69
2023/07/28 16:15:14;;;;;;;8.43;7.40;;;;;;;28.08;52.05;101519.63;21083584;28;20097;-69
2023/07/28 16:25:16;;;;;;;8.05;7.05;;;;;;;28.13;51.82;101505.41;21086812;28;20028;-68
2023/07/28 16:35:17;;;;;;;8.88;7.95;;;;;;;28.05;51.74;101483.69;21089469;28;20040;-70
2023/07/28 16:45:19;;;;;;;9.52;7.80;;;;;;;28.24;51.86;101511.66;21088816;28;20097;-69
2023/07/28 16:55:20;;;;;;;7.90;7.10;;;;;;;28.30;51.73;101499.94;21083882;28;20052;-69
2023/07/28 17:05:22;;;;;;;8.85;7.72;;;;;;;28.34;51.82;101515.09;21083146;28;20447;-67
2023/07/28 17:15:23;;;;;;;8.48;7.68;;;;;;;28.44;51.71;101487.84;21081572;28;20070;-69
2023/07/28 17:25:24;;;;;;;8.55;7.65;;;;;;;28.47;51.84;101475.94;21081636;28;20054;-68
2023/07/28 17:35:26;;;;;;;8.57;7.53;;;;;;;27.91;51.09;101457.59;21079422;28;20557;-67
2023/07/28 17:45:30;;;;;;;8.38;7.57;;;;;;;27.59;50.92;101448.97;21079218;28;20039;-68
2023/07/28 17:55:31;;;;;;;10.32;8.55;;;;;;;27.44;51.27;101442.81;21078357;28;20044;-68
2023/07/28 18:05:33;;;;;;;8.73;7.82;;;;;;;27.29;50.85;101427.13;21077486;28;20078;-68
2023/07/28 18:15:37;;;;;;;9.13;7.43;;;;;;;27.22;51.32;101424.75;21077706;28;20040;-68
2023/07/28 18:25:39;;;;;;;8.70;7.82;;;;;;;27.11;51.40;101400.78;21075968;28;20521;-69
2023/07/28 18:35:43;;;;;;;8.25;7.45;;;;;;;27.10;51.50;101393.53;21077948;28;20032;-69
2023/07/28 18:45:44;;;;;;;9.15;7.82;;;;;;;26.93;51.57;101382.88;21074933;28;20028;-68
2023/07/28 18:55:46;;;;;;;9.30;8.23;;;;;;;26.88;51.52;101373.72;21057001;28;20479;-69
2023/07/28 19:05:47;;;;;;;9.05;8.13;;;;;;;26.94;52.68;101372.47;21074680;28;20043;-68
2023/07/28 19:15:49;;;;;;;8.68;7.63;;;;;;;27.00;53.00;101374.03;21074560;28;20387;-69
2023/07/28 19:25:51;;;;;;;9.30;8.20;;;;;;;26.97;53.19;101355.00;21073364;28;20107;-68
2023/07/28 19:35:53;;;;;;;9.52;8.55;;;;;;;27.02;53.33;101352.06;21073900;28;20308;-68
2023/07/28 19:45:57;;;;;;;10.13;9.02;;;;;;;27.01;53.44;101334.41;21072834;28;20040;-69
2023/07/28 19:56:00;;;;;;;11.18;9.48;;;;;;;27.06;53.97;101325.03;21081280;28;20059;-69
2023/07/28 20:06:01;;;;;;;10.73;9.50;;;;;;;27.07;54.03;101309.84;21086347;28;20471;-68
2023/07/28 20:16:03;;;;;;;11.10;9.95;;;;;;;27.01;54.47;101286.66;21068104;28;20075;-68
2023/07/28 20:26:07;;;;;;;12.98;11.23;;;;;;;27.05;54.70;101270.00;21084909;28;20525;-69
2023/07/28 20:36:16;;;;;;;12.70;10.65;;;;;;;27.04;54.55;101257.94;21085188;28;20472;-68
2023/07/28 20:46:20;;;;;;;13.57;12.18;;;;;;;27.05;54.76;101267.19;21083752;28;20040;-68
2023/07/28 20:56:21;;;;;;;14.27;12.77;;;;;;;27.01;54.88;101249.31;21083852;28;20052;-68
2023/07/28 21:06:22;;;;;;;13.82;12.43;;;;;;;27.02;54.81;101256.59;21082082;28;20054;-69
2023/07/28 21:16:24;;;;;;;15.07;12.82;;;;;;;27.03;55.04;101261.03;21082460;28;20035;-68
2023/07/28 21:26:25;;;;;;;14.40;12.90;;;;;;;26.97;54.91;101237.03;21081164;28;20032;-68
2023/07/28 21:36:30;;;;;;;15.40;13.65;;;;;;;26.99;54.67;101223.53;21079586;28;20052;-68
2023/07/28 21:46:32;;;;;;;17.67;14.40;;;;;;;27.00;54.92;101208.34;21080071;28;20545;-67
2023/07/28 21:56:34;;;;;;;18.70;15.68;;;;;;;27.05;55.11;101208.22;21078956;28;20426;-68
2023/07/28 22:06:36;;;;;;;20.35;17.15;;;;;;;27.07;55.69;101212.34;21078032;28;20047;-69
2023/07/28 22:16:37;;;;;;;18.90;16.48;;;;;;;27.05;55.42;101197.81;21077745;28;20047;-68
2023/07/28 22:26:40;;;;;;;20.48;17.55;;;;;;;27.10;55.40;101203.34;21077496;28;20445;-68
2023/07/28 22:36:41;;;;;;;20.60;18.33;;;;;;;27.06;55.47;101196.66;21076409;28;20044;-68
2023/07/28 22:46:43;;;;;;;21.75;18.73;;;;;;;27.06;55.70;101198.63;21075397;28;20082;-68
2023/07/28 22:56:44;;;;;;;20.50;18.27;;;;;;;26.99;55.62;101181.41;21075121;28;20036;-68
2023/07/28 23:06:45;;;;;;;23.30;19.52;;;;;;;27.07;55.98;101206.72;21075115;28;20541;-69
2023/07/28 23:16:48;;;;;;;24.02;19.15;;;;;;;27.05;55.67;101206.22;21074254;28;20048;-67
2023/07/28 23:26:50;;;;;;;23.75;19.20;;;;;;;27.07;55.77;101215.16;21078388;28;20035;-69
2023/07/28 23:36:53;;;;;;;26.35;21.05;;;;;;;27.08;55.19;101213.22;21087922;28;20089;-70
2023/07/28 23:46:55;;;;;;;22.77;19.17;;;;;;;27.04;55.71;101206.56;21090239;28;20039;-69
2023/07/28 23:56:56;;;;;;;24.20;21.52;;;;;;;27.05;55.67;101213.81;21089105;28;20106;-70
